sensor_id;sensor_type;location;lat;lon;timestamp;temperature;humidity
45615;DHT22;31321;40.922;14.436;2022-07-22T00:00:14;29.20;99.90
45615;DHT22;31321;40.922;14.436;2022-07-22T00:02:40;29.20;99.90
45615;DHT22;31321;40.922;14.436;2022-07-22T00:05:06;29.20;99.90
45615;DHT22;31321;40.922;14.436;2022-07-22T00:07:32;29.20;99.90
45615;DHT22;31321;40.922;14.436;2022-07-22T00:09:58;29.30;99.90
45615;DHT22;31321;40.922;14.436;2022-07-22T00:12:24;29.30;99.90
45615;DHT22;31321;40.922;14.436;2022-07-22T00:14:50;29.30;99.90
45615;DHT22;31321;40.922;14.436;2022-07-22T00:17:15;29.10;99.90
45615;DHT22;31321;40.922;14.436;2022-07-22T00:19:41;29.20;99.90
45615;DHT22;31321;40.922;14.436;2022-07-22T00:22:07;29.20;99.90
45615;DHT22;31321;40.922;14.436;2022-07-22T00:24:33;29.00;99.90
45615;DHT22;31321;40.922;14.436;2022-07-22T00:26:59;29.00;99.90
45615;DHT22;31321;40.922;14.436;2022-07-22T00:29:24;28.90;99.90
45615;DHT22;31321;40.922;14.436;2022-07-22T00:31:50;28.90;99.90
45615;DHT22;31321;40.922;14.436;2022-07-22T00:34:16;28.90;99.90
45615;DHT22;31321;40.922;14.436;2022-07-22T00:36:42;28.80;99.90
45615;DHT22;31321;40.922;14.436;2022-07-22T00:39:07;28.70;99.90
45615;DHT22;31321;40.922;14.436;2022-07-22T00:41:33;28.80;99.90
45615;DHT22;31321;40.922;14.436;2022-07-22T00:44:00;28.90;99.90
45615;DHT22;31321;40.922;14.436;2022-07-22T00:46:26;28.80;99.90
45615;DHT22;31321;40.922;14.436;2022-07-22T00:48:52;28.80;99.90
45615;DHT22;31321;40.922;14.436;2022-07-22T00:51:19;28.60;99.90
45615;DHT22;31321;40.922;14.436;2022-07-22T00:53:45;28.50;99.90
45615;DHT22;31321;40.922;14.436;2022-07-22T00:56:11;28.50;99.90
45615;DHT22;31321;40.922;14.436;2022-07-22T00:58:37;28.50;99.90
45615;DHT22;31321;40.922;14.436;2022-07-22T01:01:03;28.40;99.90
45615;DHT22;31321;40.922;14.436;2022-07-22T01:03:29;28.40;99.90
45615;DHT22;31321;40.922;14.436;2022-07-22T01:05:55;28.50;99.90
45615;DHT22;31321;40.922;14.436;2022-07-22T01:08:21;28.40;99.90
45615;DHT22;31321;40.922;14.436;2022-07-22T01:10:47;28.50;99.90
45615;DHT22;31321;40.922;14.436;2022-07-22T01:13:13;28.50;99.90
45615;DHT22;31321;40.922;14.436;2022-07-22T01:15:39;28.40;99.90
45615;DHT22;31321;40.922;14.436;2022-07-22T01:18:04;28.30;99.90
45615;DHT22;31321;40.922;14.436;2022-07-22T01:20:30;28.20;99.90
45615;DHT22;31321;40.922;14.436;2022-07-22T01:22:57;28.10;99.90
45615;DHT22;31321;40.922;14.436;2022-07-22T01:25:22;28.20;99.90
45615;DHT22;31321;40.922;14.436;2022-07-22T01:27:48;28.30;99.90
45615;DHT22;31321;40.922;14.436;2022-07-22T01:30:14;28.20;99.90
45615;DHT22;31321;40.922;14.436;2022-07-22T01:32:40;28.20;99.90
45615;DHT22;31321;40.922;14.436;2022-07-22T01:35:06;28.30;99.90
45615;DHT22;31321;40.922;14.436;2022-07-22T01:37:33;28.20;99.90
45615;DHT22;31321;40.922;14.436;2022-07-22T01:39:59;28.30;99.90
45615;DHT22;31321;40.922;14.436;2022-07-22T01:42:25;28.20;99.90
45615;DHT22;31321;40.922;14.436;2022-07-22T01:44:51;28.00;99.90
45615;DHT22;31321;40.922;14.436;2022-07-22T01:47:16;28.10;99.90
45615;DHT22;31321;40.922;14.436;2022-07-22T01:49:42;28.00;99.90
45615;DHT22;31321;40.922;14.436;2022-07-22T01:52:08;28.10;99.90
45615;DHT22;31321;40.922;14.436;2022-07-22T01:54:33;28.00;99.90
45615;DHT22;31321;40.922;14.436;2022-07-22T01:57:00;28.00;99.90
45615;DHT22;31321;40.922;14.436;2022-07-22T01:59:25;28.00;99.90
45615;DHT22;31321;40.922;14.436;2022-07-22T02:01:51;28.00;99.90
45615;DHT22;31321;40.922;14.436;2022-07-22T02:04:17;27.90;99.90
45615;DHT22;31321;40.922;14.436;2022-07-22T02:06:43;27.90;99.90
45615;DHT22;31321;40.922;14.436;2022-07-22T02:09:09;27.90;99.90
45615;DHT22;31321;40.922;14.436;2022-07-22T02:11:35;27.80;99.90
45615;DHT22;31321;40.922;14.436;2022-07-22T02:14:00;27.90;99.90
45615;DHT22;31321;40.922;14.436;2022-07-22T02:16:27;27.90;99.90
45615;DHT22;31321;40.922;14.436;2022-07-22T02:18:52;27.80;99.90
45615;DHT22;31321;40.922;14.436;2022-07-22T02:21:18;27.80;99.90
45615;DHT22;31321;40.922;14.436;2022-07-22T02:23:44;27.80;99.90
45615;DHT22;31321;40.922;14.436;2022-07-22T02:26:10;27.70;99.90
45615;DHT22;31321;40.922;14.436;2022-07-22T02:28:36;27.80;99.90
45615;DHT22;31321;40.922;14.436;2022-07-22T02:31:02;27.70;99.90
45615;DHT22;31321;40.922;14.436;2022-07-22T02:33:27;27.70;99.90
45615;DHT22;31321;40.922;14.436;2022-07-22T02:35:55;27.60;99.90
45615;DHT22;31321;40.922;14.436;2022-07-22T02:38:21;27.60;99.90
45615;DHT22;31321;40.922;14.436;2022-07-22T02:40:46;27.70;99.90
45615;DHT22;31321;40.922;14.436;2022-07-22T02:43:12;27.70;99.90
45615;DHT22;31321;40.922;14.436;2022-07-22T02:45:38;27.50;99.90
45615;DHT22;31321;40.922;14.436;2022-07-22T02:48:04;27.50;99.90
45615;DHT22;31321;40.922;14.436;2022-07-22T02:50:30;27.50;99.90
45615;DHT22;31321;40.922;14.436;2022-07-22T02:52:58;27.50;99.90
45615;DHT22;31321;40.922;14.436;2022-07-22T02:55:23;27.50;99.90
45615;DHT22;31321;40.922;14.436;2022-07-22T02:57:49;27.40;99.90
45615;DHT22;31321;40.922;14.436;2022-07-22T03:00:15;27.40;99.90
45615;DHT22;31321;40.922;14.436;2022-07-22T03:02:41;27.40;99.90
45615;DHT22;31321;40.922;14.436;2022-07-22T03:05:07;27.50;99.90
45615;DHT22;31321;40.922;14.436;2022-07-22T03:07:33;27.50;99.90
45615;DHT22;31321;40.922;14.436;2022-07-22T03:09:59;27.50;99.90
45615;DHT22;31321;40.922;14.436;2022-07-22T03:12:24;27.50;99.90
45615;DHT22;31321;40.922;14.436;2022-07-22T03:14:50;27.40;99.90
45615;DHT22;31321;40.922;14.436;2022-07-22T03:17:16;27.50;99.90
45615;DHT22;31321;40.922;14.436;2022-07-22T03:19:41;27.60;99.90
45615;DHT22;31321;40.922;14.436;2022-07-22T03:22:07;27.50;99.90
45615;DHT22;31321;40.922;14.436;2022-07-22T03:24:34;27.50;99.90
45615;DHT22;31321;40.922;14.436;2022-07-22T03:26:59;27.50;99.90
45615;DHT22;31321;40.922;14.436;2022-07-22T03:29:25;27.50;99.90
45615;DHT22;31321;40.922;14.436;2022-07-22T03:31:51;27.40;99.90
45615;DHT22;31321;40.922;14.436;2022-07-22T03:34:17;27.50;99.90
45615;DHT22;31321;40.922;14.436;2022-07-22T03:36:43;27.40;99.90
45615;DHT22;31321;40.922;14.436;2022-07-22T03:39:08;27.30;99.90
45615;DHT22;31321;40.922;14.436;2022-07-22T03:41:34;27.40;99.90
45615;DHT22;31321;40.922;14.436;2022-07-22T03:44:00;27.40;99.90
45615;DHT22;31321;40.922;14.436;2022-07-22T03:46:26;27.40;99.90
45615;DHT22;31321;40.922;14.436;2022-07-22T03:48:51;27.30;99.90
45615;DHT22;31321;40.922;14.436;2022-07-22T03:51:17;27.30;99.90
45615;DHT22;31321;40.922;14.436;2022-07-22T03:53:43;27.20;99.90
45615;DHT22;31321;40.922;14.436;2022-07-22T03:56:09;27.30;99.90
45615;DHT22;31321;40.922;14.436;2022-07-22T03:58:34;27.30;99.90
45615;DHT22;31321;40.922;14.436;2022-07-22T04:01:00;27.40;99.90
45615;DHT22;31321;40.922;14.436;2022-07-22T04:03:26;27.40;99.90
45615;DHT22;31321;40.922;14.436;2022-07-22T04:05:52;27.40;99.90
45615;DHT22;31321;40.922;14.436;2022-07-22T04:08:18;27.40;99.90
45615;DHT22;31321;40.922;14.436;2022-07-22T04:10:44;27.50;99.90
45615;DHT22;31321;40.922;14.436;2022-07-22T04:13:10;27.60;99.90
45615;DHT22;31321;40.922;14.436;2022-07-22T04:15:36;27.40;99.90
45615;DHT22;31321;40.922;14.436;2022-07-22T04:18:01;27.30;99.90
45615;DHT22;31321;40.922;14.436;2022-07-22T04:20:27;27.40;99.90
45615;DHT22;31321;40.922;14.436;2022-07-22T04:22:53;27.60;99.90
45615;DHT22;31321;40.922;14.436;2022-07-22T04:25:19;27.70;99.90
45615;DHT22;31321;40.922;14.436;2022-07-22T04:27:45;27.70;99.90
45615;DHT22;31321;40.922;14.436;2022-07-22T04:30:10;27.70;99.90
45615;DHT22;31321;40.922;14.436;2022-07-22T04:32:36;27.70;99.90
45615;DHT22;31321;40.922;14.436;2022-07-22T04:35:02;27.80;99.90
45615;DHT22;31321;40.922;14.436;2022-07-22T04:37:28;27.90;99.90
45615;DHT22;31321;40.922;14.436;2022-07-22T04:39:54;28.10;99.90
45615;DHT22;31321;40.922;14.436;2022-07-22T04:42:20;28.10;99.90
45615;DHT22;31321;40.922;14.436;2022-07-22T04:44:46;28.00;99.90
45615;DHT22;31321;40.922;14.436;2022-07-22T04:47:12;28.20;99.90
45615;DHT22;31321;40.922;14.436;2022-07-22T04:49:38;28.40;99.90
45615;DHT22;31321;40.922;14.436;2022-07-22T04:52:04;28.40;99.90
45615;DHT22;31321;40.922;14.436;2022-07-22T04:54:30;28.60;99.90
45615;DHT22;31321;40.922;14.436;2022-07-22T04:56:55;28.70;99.90
45615;DHT22;31321;40.922;14.436;2022-07-22T04:59:21;28.50;99.90
45615;DHT22;31321;40.922;14.436;2022-07-22T05:01:47;28.70;99.90
45615;DHT22;31321;40.922;14.436;2022-07-22T05:04:12;28.80;99.90
45615;DHT22;31321;40.922;14.436;2022-07-22T05:06:38;28.80;99.90
45615;DHT22;31321;40.922;14.436;2022-07-22T05:09:04;29.00;99.90
45615;DHT22;31321;40.922;14.436;2022-07-22T05:11:29;29.00;99.90
45615;DHT22;31321;40.922;14.436;2022-07-22T05:13:55;29.00;99.90
45615;DHT22;31321;40.922;14.436;2022-07-22T05:16:21;28.90;99.90
45615;DHT22;31321;40.922;14.436;2022-07-22T05:18:47;28.90;99.90
45615;DHT22;31321;40.922;14.436;2022-07-22T05:21:12;28.90;99.90
45615;DHT22;31321;40.922;14.436;2022-07-22T05:23:38;28.90;99.90
45615;DHT22;31321;40.922;14.436;2022-07-22T05:26:04;28.90;99.90
45615;DHT22;31321;40.922;14.436;2022-07-22T05:28:30;28.90;99.90
45615;DHT22;31321;40.922;14.436;2022-07-22T05:30:55;28.70;99.90
45615;DHT22;31321;40.922;14.436;2022-07-22T05:33:21;28.90;99.90
45615;DHT22;31321;40.922;14.436;2022-07-22T05:35:47;28.80;99.90
45615;DHT22;31321;40.922;14.436;2022-07-22T05:38:12;28.90;99.90
45615;DHT22;31321;40.922;14.436;2022-07-22T05:40:38;28.80;99.90
45615;DHT22;31321;40.922;14.436;2022-07-22T05:43:04;28.80;99.90
45615;DHT22;31321;40.922;14.436;2022-07-22T05:45:30;28.80;99.90
45615;DHT22;31321;40.922;14.436;2022-07-22T05:47:55;28.60;99.90
45615;DHT22;31321;40.922;14.436;2022-07-22T05:50:21;28.70;99.90
45615;DHT22;31321;40.922;14.436;2022-07-22T05:52:47;28.90;99.90
45615;DHT22;31321;40.922;14.436;2022-07-22T05:55:13;28.70;99.90
45615;DHT22;31321;40.922;14.436;2022-07-22T05:57:38;28.80;99.90
45615;DHT22;31321;40.922;14.436;2022-07-22T06:00:04;28.80;99.90
45615;DHT22;31321;40.922;14.436;2022-07-22T06:02:31;28.90;99.90
45615;DHT22;31321;40.922;14.436;2022-07-22T06:04:57;29.00;99.90
45615;DHT22;31321;40.922;14.436;2022-07-22T06:07:23;29.00;99.90
45615;DHT22;31321;40.922;14.436;2022-07-22T06:09:51;29.00;99.90
45615;DHT22;31321;40.922;14.436;2022-07-22T06:12:17;29.00;99.90
45615;DHT22;31321;40.922;14.436;2022-07-22T06:14:43;29.00;99.90
45615;DHT22;31321;40.922;14.436;2022-07-22T06:17:09;28.90;99.90
45615;DHT22;31321;40.922;14.436;2022-07-22T06:19:34;29.10;99.90
45615;DHT22;31321;40.922;14.436;2022-07-22T06:22:00;29.10;99.90
45615;DHT22;31321;40.922;14.436;2022-07-22T06:24:26;29.30;99.90
45615;DHT22;31321;40.922;14.436;2022-07-22T06:26:52;29.40;99.90
45615;DHT22;31321;40.922;14.436;2022-07-22T06:29:18;29.50;99.90
45615;DHT22;31321;40.922;14.436;2022-07-22T06:31:43;29.60;99.90
45615;DHT22;31321;40.922;14.436;2022-07-22T06:34:09;29.60;99.90
45615;DHT22;31321;40.922;14.436;2022-07-22T06:36:35;29.20;99.90
45615;DHT22;31321;40.922;14.436;2022-07-22T06:39:00;29.50;99.90
45615;DHT22;31321;40.922;14.436;2022-07-22T06:41:26;29.70;99.90
45615;DHT22;31321;40.922;14.436;2022-07-22T06:43:52;29.80;99.90
45615;DHT22;31321;40.922;14.436;2022-07-22T06:46:18;29.80;99.90
45615;DHT22;31321;40.922;14.436;2022-07-22T06:48:43;29.80;99.90
45615;DHT22;31321;40.922;14.436;2022-07-22T06:51:09;29.90;99.90
45615;DHT22;31321;40.922;14.436;2022-07-22T06:53:35;30.10;99.90
45615;DHT22;31321;40.922;14.436;2022-07-22T06:56:01;30.10;99.90
45615;DHT22;31321;40.922;14.436;2022-07-22T06:58:27;30.20;99.90
45615;DHT22;31321;40.922;14.436;2022-07-22T07:00:52;30.00;99.90
45615;DHT22;31321;40.922;14.436;2022-07-22T07:03:18;30.00;99.90
45615;DHT22;31321;40.922;14.436;2022-07-22T07:05:44;30.10;99.90
45615;DHT22;31321;40.922;14.436;2022-07-22T07:08:10;30.10;99.90
45615;DHT22;31321;40.922;14.436;2022-07-22T07:10:35;30.30;99.90
45615;DHT22;31321;40.922;14.436;2022-07-22T07:13:01;30.40;99.90
45615;DHT22;31321;40.922;14.436;2022-07-22T07:15:27;30.50;99.90
45615;DHT22;31321;40.922;14.436;2022-07-22T07:17:53;30.50;99.90
45615;DHT22;31321;40.922;14.436;2022-07-22T07:20:19;30.70;99.90
45615;DHT22;31321;40.922;14.436;2022-07-22T07:22:45;30.80;99.90
45615;DHT22;31321;40.922;14.436;2022-07-22T07:25:11;30.70;99.90
45615;DHT22;31321;40.922;14.436;2022-07-22T07:27:36;30.80;99.90
45615;DHT22;31321;40.922;14.436;2022-07-22T07:30:03;30.80;99.90
45615;DHT22;31321;40.922;14.436;2022-07-22T07:32:29;30.90;99.90
45615;DHT22;31321;40.922;14.436;2022-07-22T07:34:55;31.00;99.90
45615;DHT22;31321;40.922;14.436;2022-07-22T07:37:20;31.00;99.90
45615;DHT22;31321;40.922;14.436;2022-07-22T07:39:46;31.30;99.90
45615;DHT22;31321;40.922;14.436;2022-07-22T07:42:12;31.20;99.90
45615;DHT22;31321;40.922;14.436;2022-07-22T07:44:37;31.30;99.90
45615;DHT22;31321;40.922;14.436;2022-07-22T07:47:03;31.40;99.90
45615;DHT22;31321;40.922;14.436;2022-07-22T07:49:29;31.30;99.90
45615;DHT22;31321;40.922;14.436;2022-07-22T07:51:55;31.60;99.90
45615;DHT22;31321;40.922;14.436;2022-07-22T07:54:21;31.60;99.90
45615;DHT22;31321;40.922;14.436;2022-07-22T07:56:46;31.60;99.90
45615;DHT22;31321;40.922;14.436;2022-07-22T07:59:12;31.50;99.90
45615;DHT22;31321;40.922;14.436;2022-07-22T08:01:38;31.50;99.90
45615;DHT22;31321;40.922;14.436;2022-07-22T08:04:04;31.50;99.90
45615;DHT22;31321;40.922;14.436;2022-07-22T08:06:29;31.80;99.90
45615;DHT22;31321;40.922;14.436;2022-07-22T08:08:55;31.80;99.90
45615;DHT22;31321;40.922;14.436;2022-07-22T08:11:21;31.80;99.90
45615;DHT22;31321;40.922;14.436;2022-07-22T08:13:47;31.80;99.90
45615;DHT22;31321;40.922;14.436;2022-07-22T08:16:12;31.60;99.90
45615;DHT22;31321;40.922;14.436;2022-07-22T08:18:38;31.60;99.90
45615;DHT22;31321;40.922;14.436;2022-07-22T08:21:04;31.70;99.90
45615;DHT22;31321;40.922;14.436;2022-07-22T08:23:29;31.90;99.90
45615;DHT22;31321;40.922;14.436;2022-07-22T08:25:55;31.90;99.90
45615;DHT22;31321;40.922;14.436;2022-07-22T08:28:21;32.20;99.90
45615;DHT22;31321;40.922;14.436;2022-07-22T08:30:47;32.10;99.90
45615;DHT22;31321;40.922;14.436;2022-07-22T08:33:13;32.00;99.90
45615;DHT22;31321;40.922;14.436;2022-07-22T08:35:38;31.90;99.90
45615;DHT22;31321;40.922;14.436;2022-07-22T08:38:04;31.60;99.90
45615;DHT22;31321;40.922;14.436;2022-07-22T08:40:30;31.70;99.90
45615;DHT22;31321;40.922;14.436;2022-07-22T08:42:55;32.00;99.90
45615;DHT22;31321;40.922;14.436;2022-07-22T08:45:21;32.10;99.90
45615;DHT22;31321;40.922;14.436;2022-07-22T08:47:49;32.20;99.90
45615;DHT22;31321;40.922;14.436;2022-07-22T08:50:15;32.00;99.90
45615;DHT22;31321;40.922;14.436;2022-07-22T08:52:41;32.00;99.90
45615;DHT22;31321;40.922;14.436;2022-07-22T08:55:07;32.30;99.90
45615;DHT22;31321;40.922;14.436;2022-07-22T08:57:32;32.40;99.90
45615;DHT22;31321;40.922;14.436;2022-07-22T08:59:59;32.50;99.90
45615;DHT22;31321;40.922;14.436;2022-07-22T09:02:26;32.50;99.90
45615;DHT22;31321;40.922;14.436;2022-07-22T09:07:29;32.60;99.90
45615;DHT22;31321;40.922;14.436;2022-07-22T09:09:55;32.60;99.90
45615;DHT22;31321;40.922;14.436;2022-07-22T09:12:20;32.60;99.90
45615;DHT22;31321;40.922;14.436;2022-07-22T09:14:48;32.70;99.90
45615;DHT22;31321;40.922;14.436;2022-07-22T09:20:02;32.60;99.90
45615;DHT22;31321;40.922;14.436;2022-07-22T09:22:31;32.60;99.90
45615;DHT22;31321;40.922;14.436;2022-07-22T09:24:56;32.60;99.90
45615;DHT22;31321;40.922;14.436;2022-07-22T09:27:24;32.70;99.90
45615;DHT22;31321;40.922;14.436;2022-07-22T09:29:50;32.60;99.90
45615;DHT22;31321;40.922;14.436;2022-07-22T09:32:16;32.50;99.90
45615;DHT22;31321;40.922;14.436;2022-07-22T09:34:41;32.60;99.90
45615;DHT22;31321;40.922;14.436;2022-07-22T09:37:07;32.70;99.90
45615;DHT22;31321;40.922;14.436;2022-07-22T09:39:33;32.60;99.90
45615;DHT22;31321;40.922;14.436;2022-07-22T09:42:00;32.80;99.90
45615;DHT22;31321;40.922;14.436;2022-07-22T09:44:26;32.70;99.90
45615;DHT22;31321;40.922;14.436;2022-07-22T09:46:51;32.90;99.90
45615;DHT22;31321;40.922;14.436;2022-07-22T09:52:04;32.90;99.90
45615;DHT22;31321;40.922;14.436;2022-07-22T09:54:30;32.90;99.90
45615;DHT22;31321;40.922;14.436;2022-07-22T09:56:56;33.00;99.90
45615;DHT22;31321;40.922;14.436;2022-07-22T09:59:22;32.90;99.90
45615;DHT22;31321;40.922;14.436;2022-07-22T10:01:47;32.90;99.90
45615;DHT22;31321;40.922;14.436;2022-07-22T10:04:15;33.00;99.90
45615;DHT22;31321;40.922;14.436;2022-07-22T10:06:44;32.90;99.90
45615;DHT22;31321;40.922;14.436;2022-07-22T10:09:10;32.90;99.90
45615;DHT22;31321;40.922;14.436;2022-07-22T10:11:37;33.00;99.90
45615;DHT22;31321;40.922;14.436;2022-07-22T10:14:03;33.10;99.90
45615;DHT22;31321;40.922;14.436;2022-07-22T10:16:29;33.20;99.90
45615;DHT22;31321;40.922;14.436;2022-07-22T10:18:55;33.10;99.90
45615;DHT22;31321;40.922;14.436;2022-07-22T10:21:30;32.90;99.90
45615;DHT22;31321;40.922;14.436;2022-07-22T10:26:47;33.00;99.90
45615;DHT22;31321;40.922;14.436;2022-07-22T10:34:43;32.90;99.90
45615;DHT22;31321;40.922;14.436;2022-07-22T10:45:21;33.00;99.90
45615;DHT22;31321;40.922;14.436;2022-07-22T10:47:55;32.90;99.90
45615;DHT22;31321;40.922;14.436;2022-07-22T10:50:40;32.90;99.90
45615;DHT22;31321;40.922;14.436;2022-07-22T10:53:07;32.90;99.90
45615;DHT22;31321;40.922;14.436;2022-07-22T10:55:33;32.90;99.90
45615;DHT22;31321;40.922;14.436;2022-07-22T10:57:59;33.10;99.90
45615;DHT22;31321;40.922;14.436;2022-07-22T11:00:25;32.90;99.90
45615;DHT22;31321;40.922;14.436;2022-07-22T11:02:51;33.10;99.90
45615;DHT22;31321;40.922;14.436;2022-07-22T11:05:25;33.10;99.90
45615;DHT22;31321;40.922;14.436;2022-07-22T11:07:50;33.00;99.90
45615;DHT22;31321;40.922;14.436;2022-07-22T11:10:17;33.10;99.90
45615;DHT22;31321;40.922;14.436;2022-07-22T11:12:44;33.10;99.90
45615;DHT22;31321;40.922;14.436;2022-07-22T11:15:10;33.00;99.90
45615;DHT22;31321;40.922;14.436;2022-07-22T11:17:36;33.10;99.90
45615;DHT22;31321;40.922;14.436;2022-07-22T11:20:05;33.20;99.90
45615;DHT22;31321;40.922;14.436;2022-07-22T11:22:32;33.00;99.90
45615;DHT22;31321;40.922;14.436;2022-07-22T11:24:59;33.10;99.90
45615;DHT22;31321;40.922;14.436;2022-07-22T11:27:26;33.10;99.90
45615;DHT22;31321;40.922;14.436;2022-07-22T11:29:53;33.00;99.90
45615;DHT22;31321;40.922;14.436;2022-07-22T11:32:19;33.00;99.90
45615;DHT22;31321;40.922;14.436;2022-07-22T11:34:45;33.00;99.90
45615;DHT22;31321;40.922;14.436;2022-07-22T11:37:12;33.00;99.90
45615;DHT22;31321;40.922;14.436;2022-07-22T11:39:38;33.00;99.90
45615;DHT22;31321;40.922;14.436;2022-07-22T11:42:04;33.00;99.90
45615;DHT22;31321;40.922;14.436;2022-07-22T11:44:30;33.00;99.90
45615;DHT22;31321;40.922;14.436;2022-07-22T11:46:56;32.90;99.90
45615;DHT22;31321;40.922;14.436;2022-07-22T11:49:24;32.90;99.90
45615;DHT22;31321;40.922;14.436;2022-07-22T11:51:50;32.90;99.90
45615;DHT22;31321;40.922;14.436;2022-07-22T11:54:16;32.90;99.90
45615;DHT22;31321;40.922;14.436;2022-07-22T11:56:42;32.80;99.90
45615;DHT22;31321;40.922;14.436;2022-07-22T11:59:11;32.70;99.90
45615;DHT22;31321;40.922;14.436;2022-07-22T12:01:37;32.70;99.90
45615;DHT22;31321;40.922;14.436;2022-07-22T12:04:05;32.40;99.90
45615;DHT22;31321;40.922;14.436;2022-07-22T12:06:32;32.40;99.90
45615;DHT22;31321;40.922;14.436;2022-07-22T12:09:03;32.30;99.90
45615;DHT22;31321;40.922;14.436;2022-07-22T12:11:29;32.50;99.90
45615;DHT22;31321;40.922;14.436;2022-07-22T12:13:55;32.50;99.90
45615;DHT22;31321;40.922;14.436;2022-07-22T12:16:29;32.40;99.90
45615;DHT22;31321;40.922;14.436;2022-07-22T12:18:57;32.40;99.90
45615;DHT22;31321;40.922;14.436;2022-07-22T12:21:24;32.40;99.90
45615;DHT22;31321;40.922;14.436;2022-07-22T12:23:51;32.10;99.90
45615;DHT22;31321;40.922;14.436;2022-07-22T12:26:17;32.00;99.90
45615;DHT22;31321;40.922;14.436;2022-07-22T12:28:43;32.10;99.90
45615;DHT22;31321;40.922;14.436;2022-07-22T12:31:09;32.00;99.90
45615;DHT22;31321;40.922;14.436;2022-07-22T12:33:35;32.00;99.90
45615;DHT22;31321;40.922;14.436;2022-07-22T12:36:04;32.00;99.90
45615;DHT22;31321;40.922;14.436;2022-07-22T12:38:31;32.10;99.90
45615;DHT22;31321;40.922;14.436;2022-07-22T12:41:20;32.00;99.90
45615;DHT22;31321;40.922;14.436;2022-07-22T12:43:42;32.00;99.90
45615;DHT22;31321;40.922;14.436;2022-07-22T12:46:08;31.80;99.90
45615;DHT22;31321;40.922;14.436;2022-07-22T12:48:34;31.80;99.90
45615;DHT22;31321;40.922;14.436;2022-07-22T12:50:59;32.00;99.90
45615;DHT22;31321;40.922;14.436;2022-07-22T12:53:25;31.90;99.90
45615;DHT22;31321;40.922;14.436;2022-07-22T12:55:56;31.80;99.90
45615;DHT22;31321;40.922;14.436;2022-07-22T12:58:23;32.00;99.90
45615;DHT22;31321;40.922;14.436;2022-07-22T13:00:51;31.80;99.90
45615;DHT22;31321;40.922;14.436;2022-07-22T13:03:17;31.90;99.90
45615;DHT22;31321;40.922;14.436;2022-07-22T13:05:46;31.70;99.90
45615;DHT22;31321;40.922;14.436;2022-07-22T13:08:11;31.80;99.90
45615;DHT22;31321;40.922;14.436;2022-07-22T13:10:37;31.70;99.90
45615;DHT22;31321;40.922;14.436;2022-07-22T13:13:03;31.70;99.90
45615;DHT22;31321;40.922;14.436;2022-07-22T13:15:28;31.60;99.90
45615;DHT22;31321;40.922;14.436;2022-07-22T13:17:54;31.60;99.90
45615;DHT22;31321;40.922;14.436;2022-07-22T13:20:20;31.50;99.90
45615;DHT22;31321;40.922;14.436;2022-07-22T13:22:46;31.50;99.90
45615;DHT22;31321;40.922;14.436;2022-07-22T13:25:12;31.60;99.90
45615;DHT22;31321;40.922;14.436;2022-07-22T13:27:39;31.50;99.90
45615;DHT22;31321;40.922;14.436;2022-07-22T13:30:05;31.40;99.90
45615;DHT22;31321;40.922;14.436;2022-07-22T13:32:32;31.50;99.90
45615;DHT22;31321;40.922;14.436;2022-07-22T13:34:58;31.30;99.90
45615;DHT22;31321;40.922;14.436;2022-07-22T13:37:23;31.30;99.90
45615;DHT22;31321;40.922;14.436;2022-07-22T13:39:49;31.50;99.90
45615;DHT22;31321;40.922;14.436;2022-07-22T13:42:16;31.30;99.90
45615;DHT22;31321;40.922;14.436;2022-07-22T13:44:45;31.50;99.90
45615;DHT22;31321;40.922;14.436;2022-07-22T13:47:10;31.60;99.90
45615;DHT22;31321;40.922;14.436;2022-07-22T13:49:36;31.70;99.90
45615;DHT22;31321;40.922;14.436;2022-07-22T13:52:02;31.80;99.90
45615;DHT22;31321;40.922;14.436;2022-07-22T13:54:28;31.50;99.90
45615;DHT22;31321;40.922;14.436;2022-07-22T13:56:53;31.50;99.90
45615;DHT22;31321;40.922;14.436;2022-07-22T13:59:19;31.50;99.90
45615;DHT22;31321;40.922;14.436;2022-07-22T14:01:45;31.60;99.90
45615;DHT22;31321;40.922;14.436;2022-07-22T14:04:11;31.50;99.90
45615;DHT22;31321;40.922;14.436;2022-07-22T14:06:37;31.50;99.90
45615;DHT22;31321;40.922;14.436;2022-07-22T14:09:03;31.40;99.90
45615;DHT22;31321;40.922;14.436;2022-07-22T14:11:29;31.40;99.90
45615;DHT22;31321;40.922;14.436;2022-07-22T14:13:54;31.40;99.90
45615;DHT22;31321;40.922;14.436;2022-07-22T14:16:20;31.40;99.90
45615;DHT22;31321;40.922;14.436;2022-07-22T14:19:08;31.50;99.90
45615;DHT22;31321;40.922;14.436;2022-07-22T14:21:35;31.70;99.90
45615;DHT22;31321;40.922;14.436;2022-07-22T14:24:01;31.70;99.90
45615;DHT22;31321;40.922;14.436;2022-07-22T14:26:27;31.60;99.90
45615;DHT22;31321;40.922;14.436;2022-07-22T14:28:53;31.60;99.90
45615;DHT22;31321;40.922;14.436;2022-07-22T14:31:19;31.70;99.90
45615;DHT22;31321;40.922;14.436;2022-07-22T14:33:45;31.70;99.90
45615;DHT22;31321;40.922;14.436;2022-07-22T14:36:10;31.70;99.90
45615;DHT22;31321;40.922;14.436;2022-07-22T14:38:36;31.60;99.90
45615;DHT22;31321;40.922;14.436;2022-07-22T14:41:02;31.50;99.90
45615;DHT22;31321;40.922;14.436;2022-07-22T14:43:28;31.50;99.90
45615;DHT22;31321;40.922;14.436;2022-07-22T14:45:54;31.60;99.90
45615;DHT22;31321;40.922;14.436;2022-07-22T14:48:20;31.50;99.90
45615;DHT22;31321;40.922;14.436;2022-07-22T14:50:45;31.50;99.90
45615;DHT22;31321;40.922;14.436;2022-07-22T14:53:12;31.50;99.90
45615;DHT22;31321;40.922;14.436;2022-07-22T14:55:38;31.60;99.90
45615;DHT22;31321;40.922;14.436;2022-07-22T14:58:04;31.50;99.90
45615;DHT22;31321;40.922;14.436;2022-07-22T15:00:30;31.50;99.90
45615;DHT22;31321;40.922;14.436;2022-07-22T15:02:55;31.70;99.90
45615;DHT22;31321;40.922;14.436;2022-07-22T15:05:21;31.50;99.90
45615;DHT22;31321;40.922;14.436;2022-07-22T15:07:47;31.50;99.90
45615;DHT22;31321;40.922;14.436;2022-07-22T15:10:13;31.50;99.90
45615;DHT22;31321;40.922;14.436;2022-07-22T15:12:39;31.50;99.90
45615;DHT22;31321;40.922;14.436;2022-07-22T15:15:05;31.60;99.90
45615;DHT22;31321;40.922;14.436;2022-07-22T15:17:34;31.50;99.90
45615;DHT22;31321;40.922;14.436;2022-07-22T15:20:00;31.70;99.90
45615;DHT22;31321;40.922;14.436;2022-07-22T15:22:26;31.70;99.90
45615;DHT22;31321;40.922;14.436;2022-07-22T15:24:53;31.70;99.90
45615;DHT22;31321;40.922;14.436;2022-07-22T15:27:19;31.60;99.90
45615;DHT22;31321;40.922;14.436;2022-07-22T15:29:45;31.50;99.90
45615;DHT22;31321;40.922;14.436;2022-07-22T15:32:13;31.60;99.90